createdAt,value
2022-10-05T00:00:58.547Z,9.20
2022-10-05T00:03:28.408Z,9.20
2022-10-05T00:05:55.586Z,9.20
2022-10-05T00:08:25.649Z,9.10
2022-10-05T00:10:54.161Z,9.10
2022-10-05T00:13:25.498Z,9.00
2022-10-05T00:16:17.793Z,9.00
2022-10-05T00:18:53.903Z,9.00
2022-10-05T00:21:27.460Z,9.00
2022-10-05T00:23:57.854Z,9.00
2022-10-05T00:26:33.639Z,8.90
2022-10-05T00:29:05.777Z,8.90
2022-10-05T00:31:36.034Z,8.80
2022-10-05T00:34:03.175Z,8.80
2022-10-05T00:36:30.545Z,8.80
2022-10-05T00:39:00.778Z,8.70
2022-10-05T00:41:50.374Z,8.70
2022-10-05T00:44:38.244Z,8.70
2022-10-05T00:47:28.660Z,8.70
2022-10-05T00:50:21.619Z,8.60
2022-10-05T00:53:25.748Z,8.60
2022-10-05T00:56:23.971Z,8.60
2022-10-05T00:59:07.705Z,8.50
2022-10-05T01:02:01.372Z,8.50
2022-10-05T01:04:51.145Z,8.50
2022-10-05T01:07:46.245Z,8.40
2022-10-05T01:10:18.886Z,8.40
2022-10-05T01:13:18.303Z,8.40
2022-10-05T01:16:10.480Z,8.30
2022-10-05T01:19:22.754Z,8.30
2022-10-05T01:22:01.569Z,8.30
2022-10-05T01:24:49.122Z,8.30
2022-10-05T01:27:38.767Z,8.30
2022-10-05T01:30:20.951Z,8.30
2022-10-05T01:33:21.583Z,8.20
2022-10-05T01:36:18.791Z,8.20
2022-10-05T01:39:17.586Z,8.20
2022-10-05T01:42:29.656Z,8.20
2022-10-05T01:45:09.757Z,8.20
2022-10-05T01:47:46.212Z,8.10
2022-10-05T01:50:36.782Z,8.10
2022-10-05T01:54:04.457Z,8.10
2022-10-05T01:56:58.757Z,8.10
2022-10-05T01:59:41.972Z,8.10
2022-10-05T02:02:17.904Z,8.00
2022-10-05T02:05:02.091Z,8.00
2022-10-05T02:07:41.724Z,8.00
2022-10-05T02:10:33.674Z,8.00
2022-10-05T02:13:39.036Z,7.90
2022-10-05T02:16:21.715Z,7.90
2022-10-05T02:19:22.457Z,7.90
2022-10-05T02:21:56.879Z,7.90
2022-10-05T02:24:30.190Z,7.90
2022-10-05T02:26:58.212Z,7.90
2022-10-05T02:29:30.957Z,7.90
2022-10-05T02:32:15.782Z,7.90
2022-10-05T02:34:44.116Z,7.90
2022-10-05T02:37:43.353Z,7.90
2022-10-05T02:40:25.918Z,7.90
2022-10-05T02:43:10.820Z,7.90
2022-10-05T02:45:56.037Z,7.90
2022-10-05T02:48:56.400Z,7.90
2022-10-05T02:51:30.150Z,7.80
2022-10-05T02:54:18.937Z,7.80
2022-10-05T02:57:01.114Z,7.80
2022-10-05T02:59:48.269Z,7.80
2022-10-05T03:02:56.446Z,7.80
2022-10-05T03:05:53.179Z,7.70
2022-10-05T03:08:35.838Z,7.70
2022-10-05T03:11:24.407Z,7.70
2022-10-05T03:14:39.622Z,7.70
2022-10-05T03:17:21.596Z,7.70
2022-10-05T03:20:04.344Z,7.70
2022-10-05T03:23:04.759Z,7.60
2022-10-05T03:25:55.810Z,7.60
2022-10-05T03:28:45.003Z,7.60
2022-10-05T03:31:35.669Z,7.60
2022-10-05T03:34:13.006Z,7.60
2022-10-05T03:36:49.590Z,7.60
2022-10-05T03:39:34.675Z,7.50
2022-10-05T03:42:44.607Z,7.60
2022-10-05T03:45:36.627Z,7.60
2022-10-05T03:48:10.218Z,7.60
2022-10-05T03:50:55.905Z,7.50
2022-10-05T03:53:30.142Z,7.50
2022-10-05T03:56:20.273Z,7.50
2022-10-05T03:59:12.289Z,7.50
2022-10-05T04:01:44.430Z,7.50
2022-10-05T04:04:20.028Z,7.50
2022-10-05T04:06:50.792Z,7.60
2022-10-05T04:09:27.735Z,7.60
2022-10-05T04:12:36.839Z,7.60
2022-10-05T04:15:18.976Z,7.60
2022-10-05T04:18:04.361Z,7.60
2022-10-05T04:20:43.443Z,7.60
2022-10-05T04:23:10.659Z,7.70
2022-10-05T04:25:48.357Z,7.60
2022-10-05T04:28:52.982Z,7.70
2022-10-05T04:31:46.149Z,7.70
2022-10-05T04:35:11.107Z,7.70
2022-10-05T04:38:20.993Z,7.70
2022-10-05T04:41:20.087Z,7.70
2022-10-05T04:44:12.137Z,7.80
2022-10-05T04:46:57.189Z,7.80
2022-10-05T04:50:11.987Z,7.80
2022-10-05T04:53:05.448Z,7.80
2022-10-05T04:55:58.351Z,7.80
2022-10-05T04:58:55.894Z,7.80
2022-10-05T05:01:59.414Z,7.80
2022-10-05T05:05:08.345Z,7.90
2022-10-05T05:07:49.971Z,7.90
2022-10-05T05:10:19.834Z,7.90
2022-10-05T05:14:07.948Z,7.80
2022-10-05T05:16:43.653Z,7.80
2022-10-05T05:19:22.960Z,7.80
2022-10-05T05:22:16.392Z,7.80
2022-10-05T05:25:11.239Z,7.80
2022-10-05T05:27:55.113Z,7.80
2022-10-05T05:30:44.122Z,7.80
2022-10-05T05:33:39.839Z,7.80
2022-10-05T05:36:36.002Z,7.80
2022-10-05T05:39:24.797Z,7.80
2022-10-05T05:42:31.044Z,7.80
2022-10-05T05:45:09.066Z,7.90
2022-10-05T05:47:41.312Z,7.90
2022-10-05T05:51:12.208Z,7.90
2022-10-05T05:53:49.521Z,7.90
2022-10-05T05:56:40.421Z,8.00
2022-10-05T05:59:18.510Z,8.00
2022-10-05T06:02:03.798Z,8.10
2022-10-05T06:05:21.175Z,8.10
2022-10-05T06:07:48.281Z,8.20
2022-10-05T06:10:38.386Z,8.20
2022-10-05T06:13:35.449Z,8.20
2022-10-05T06:16:22.285Z,8.30
2022-10-05T06:19:14.826Z,8.40
2022-10-05T06:22:12.430Z,8.40
2022-10-05T06:24:57.934Z,8.50
2022-10-05T06:27:36.734Z,8.50
2022-10-05T06:30:08.379Z,8.50
2022-10-05T06:32:50.202Z,8.60
2022-10-05T06:35:37.762Z,8.60
2022-10-05T06:38:32.390Z,8.70
2022-10-05T06:41:43.392Z,8.80
2022-10-05T06:44:31.208Z,8.90
2022-10-05T06:47:10.917Z,9.00
2022-10-05T06:49:49.857Z,9.00
2022-10-05T06:52:49.611Z,9.10
2022-10-05T06:55:38.853Z,9.20
2022-10-05T06:58:31.122Z,9.30
2022-10-05T07:01:43.078Z,9.30
2022-10-05T07:04:24.792Z,9.40
2022-10-05T07:07:03.239Z,9.50
2022-10-05T07:10:06.203Z,9.50
2022-10-05T07:12:51.309Z,9.60
2022-10-05T07:15:45.441Z,9.70
2022-10-05T07:18:53.140Z,9.80
2022-10-05T07:21:46.192Z,9.90
2022-10-05T07:24:36.733Z,10.00
2022-10-05T07:27:14.705Z,10.10
2022-10-05T07:30:07.031Z,10.30
2022-10-05T07:32:44.868Z,10.40
2022-10-05T07:35:57.795Z,10.50
2022-10-05T07:38:46.979Z,10.60
2022-10-05T07:41:40.363Z,10.80
2022-10-05T07:44:43.970Z,10.90
2022-10-05T07:47:49.962Z,11.10
2022-10-05T07:50:22.863Z,11.30
2022-10-05T07:52:58.532Z,11.50
2022-10-05T07:55:52.014Z,11.60
2022-10-05T07:58:19.085Z,11.90
2022-10-05T08:01:13.218Z,12.00
2022-10-05T08:03:54.242Z,12.30
2022-10-05T08:06:27.194Z,12.50
2022-10-05T08:09:19.779Z,12.80
2022-10-05T08:12:26.934Z,13.00
2022-10-05T08:15:03.359Z,13.20
2022-10-05T08:18:21.641Z,13.40
2022-10-05T08:20:57.392Z,13.60
2022-10-05T08:23:42.963Z,13.90
2022-10-05T08:26:31.003Z,14.10
2022-10-05T08:29:18.539Z,14.30
2022-10-05T08:31:50.113Z,14.50
2022-10-05T08:34:27.717Z,14.70
2022-10-05T08:37:08.758Z,14.90
2022-10-05T08:40:19.176Z,15.20
2022-10-05T08:43:04.541Z,15.40
2022-10-05T08:45:55.940Z,15.60
2022-10-05T08:49:00.015Z,15.80
2022-10-05T08:51:53.901Z,16.10
2022-10-05T08:54:42.308Z,16.40
2022-10-05T08:57:31.269Z,16.60
2022-10-05T09:00:28.299Z,16.80
2022-10-05T09:03:49.447Z,17.10
2022-10-05T09:06:56.611Z,17.30
2022-10-05T09:09:57.166Z,17.60
2022-10-05T09:12:53.703Z,17.80
2022-10-05T09:15:54.893Z,18.00
2022-10-05T09:18:52.276Z,18.20
2022-10-05T09:22:05.543Z,18.40
2022-10-05T09:25:24.208Z,18.60
2022-10-05T09:27:59.466Z,18.80
2022-10-05T09:30:57.172Z,18.90
2022-10-05T09:33:54.070Z,19.10
2022-10-05T09:36:48.247Z,19.30
2022-10-05T09:39:51.437Z,19.40
2022-10-05T09:42:46.071Z,19.60
2022-10-05T09:45:44.417Z,19.70
2022-10-05T09:48:48.317Z,19.90
2022-10-05T09:51:49.815Z,20.00
2022-10-05T09:54:37.915Z,20.20
2022-10-05T09:58:08.203Z,20.40
2022-10-05T10:01:09.115Z,20.50
2022-10-05T10:03:56.798Z,20.70
2022-10-05T10:07:03.673Z,20.80
2022-10-05T10:09:56.195Z,21.00
2022-10-05T10:13:06.712Z,21.20
2022-10-05T10:15:46.086Z,21.30
2022-10-05T10:18:26.368Z,21.50
2022-10-05T10:21:12.033Z,21.60
2022-10-05T10:24:08.391Z,21.80
2022-10-05T10:27:08.781Z,21.90
2022-10-05T10:30:27.607Z,22.10
2022-10-05T10:33:41.694Z,22.20
2022-10-05T10:36:45.923Z,22.30
2022-10-05T10:39:56.980Z,22.50
2022-10-05T10:42:42.231Z,22.60
2022-10-05T10:45:39.795Z,22.70
2022-10-05T10:48:09.466Z,22.70
2022-10-05T10:51:04.806Z,22.80
2022-10-05T10:53:57.581Z,22.90
2022-10-05T10:57:06.623Z,23.00
2022-10-05T10:59:47.600Z,23.10
2022-10-05T11:02:27.868Z,23.20
2022-10-05T11:05:23.218Z,23.30
2022-10-05T11:08:32.337Z,23.40
2022-10-05T11:11:17.955Z,23.50
2022-10-05T11:14:22.163Z,23.60
2022-10-05T11:17:04.181Z,23.60
2022-10-05T11:20:02.903Z,23.70
2022-10-05T11:22:54.080Z,23.80
2022-10-05T11:25:46.014Z,23.90
2022-10-05T11:28:36.473Z,24.10
2022-10-05T11:31:47.811Z,24.10
2022-10-05T11:34:55.353Z,24.30
2022-10-05T11:38:08.091Z,24.40
2022-10-05T11:41:08.712Z,24.50
2022-10-05T11:44:28.961Z,24.50
2022-10-05T11:47:17.845Z,24.60
2022-10-05T11:50:22.119Z,24.70
2022-10-05T11:53:03.942Z,24.80
2022-10-05T11:56:04.326Z,24.90
2022-10-05T11:58:43.961Z,24.90
2022-10-05T12:01:56.257Z,25.00
2022-10-05T12:05:02.129Z,25.10
2022-10-05T12:08:01.467Z,25.10
2022-10-05T12:11:16.919Z,25.20
2022-10-05T12:13:58.163Z,25.20
2022-10-05T12:16:39.172Z,25.20
2022-10-05T12:19:29.808Z,25.20
2022-10-05T12:22:22.179Z,25.30
2022-10-05T12:25:22.079Z,25.30
2022-10-05T12:27:54.890Z,25.40
2022-10-05T12:30:54.817Z,25.40
2022-10-05T12:33:33.131Z,25.40
2022-10-05T12:36:15.517Z,25.50
2022-10-05T12:38:51.059Z,25.50
2022-10-05T12:41:45.754Z,25.60
2022-10-05T12:44:22.088Z,25.60
2022-10-05T12:47:23.834Z,25.60
2022-10-05T12:50:12.091Z,25.70
2022-10-05T12:52:56.221Z,25.70
2022-10-05T12:55:57.070Z,25.70
2022-10-05T12:58:35.986Z,25.80
2022-10-05T13:01:55.667Z,25.80
2022-10-05T13:04:51.271Z,25.80
2022-10-05T13:07:38.666Z,25.80
2022-10-05T13:10:48.674Z,25.90
2022-10-05T13:13:44.640Z,25.90
2022-10-05T13:16:33.216Z,25.90
2022-10-05T13:19:30.917Z,26.00
2022-10-05T13:22:18.181Z,26.00
2022-10-05T13:25:12.916Z,26.00
2022-10-05T13:28:11.979Z,26.00
2022-10-05T13:30:42.219Z,26.00
2022-10-05T13:33:47.721Z,26.00
2022-10-05T13:36:45.503Z,26.00
2022-10-05T13:39:38.644Z,26.00
2022-10-05T13:42:43.010Z,26.10
2022-10-05T13:45:24.818Z,26.10
2022-10-05T13:48:22.430Z,26.10
2022-10-05T13:51:08.997Z,26.10
2022-10-05T13:53:50.145Z,26.10
2022-10-05T13:56:43.481Z,26.10
2022-10-05T13:59:49.367Z,26.00
2022-10-05T14:02:29.805Z,26.00
2022-10-05T14:05:18.994Z,26.00
2022-10-05T14:07:58.728Z,26.00
2022-10-05T14:10:44.693Z,25.90
2022-10-05T14:13:47.110Z,25.90
2022-10-05T14:16:14.111Z,25.90
2022-10-05T14:19:11.399Z,25.90
2022-10-05T14:22:05.379Z,25.90
2022-10-05T14:24:45.426Z,25.80
2022-10-05T14:27:27.961Z,25.80
2022-10-05T14:30:06.836Z,25.70
2022-10-05T14:32:52.319Z,25.70
2022-10-05T14:35:22.448Z,25.70
2022-10-05T14:38:02.906Z,25.70
2022-10-05T14:40:36.677Z,25.70
2022-10-05T14:43:15.864Z,25.70
2022-10-05T14:45:57.864Z,25.80
2022-10-05T14:48:29.202Z,25.80
2022-10-05T14:51:02.285Z,25.80
2022-10-05T14:54:01.825Z,25.90
2022-10-05T14:56:58.203Z,26.00
2022-10-05T15:00:00.038Z,26.10
2022-10-05T15:02:52.552Z,26.10
2022-10-05T15:05:35.902Z,26.20
2022-10-05T15:08:11.868Z,26.30
2022-10-05T15:11:11.718Z,26.40
2022-10-05T15:13:44.117Z,26.50
2022-10-05T15:16:28.564Z,26.50
2022-10-05T15:19:08.338Z,26.60
2022-10-05T15:21:53.292Z,26.60
2022-10-05T15:24:26.478Z,26.70
2022-10-05T15:27:01.632Z,26.70
2022-10-05T15:29:52.426Z,26.70
2022-10-05T15:32:41.747Z,26.60
2022-10-05T15:35:30.580Z,26.50
2022-10-05T15:38:25.829Z,26.50
2022-10-05T15:41:24.934Z,26.30
2022-10-05T15:44:24.217Z,26.20
2022-10-05T15:47:06.454Z,26.00
2022-10-05T15:50:07.289Z,25.90
2022-10-05T15:53:03.481Z,25.60
2022-10-05T15:56:13.383Z,25.50
2022-10-05T15:59:18.562Z,25.30
2022-10-05T16:01:55.720Z,25.10
2022-10-05T16:04:41.930Z,24.90
2022-10-05T16:07:37.628Z,24.70
2022-10-05T16:10:23.484Z,24.50
2022-10-05T16:13:22.172Z,24.30
2022-10-05T16:16:21.094Z,24.10
2022-10-05T16:19:15.951Z,23.90
2022-10-05T16:22:07.113Z,23.70
2022-10-05T16:25:07.573Z,23.60
2022-10-05T16:27:37.284Z,23.40
2022-10-05T16:30:12.743Z,23.20
2022-10-05T16:33:08.907Z,23.00
2022-10-05T16:35:57.190Z,22.80
2022-10-05T16:39:11.997Z,22.70
2022-10-05T16:42:00.669Z,22.50
2022-10-05T16:44:53.617Z,22.30
2022-10-05T16:47:57.371Z,22.10
2022-10-05T16:50:49.585Z,22.00
2022-10-05T16:53:29.055Z,21.80
2022-10-05T16:56:04.912Z,21.70
2022-10-05T16:58:43.849Z,21.60
2022-10-05T17:01:56.306Z,21.40
2022-10-05T17:04:45.226Z,21.30
2022-10-05T17:07:24.094Z,21.20
2022-10-05T17:10:16.086Z,21.00
2022-10-05T17:13:16.388Z,20.90
2022-10-05T17:16:26.805Z,20.70
2022-10-05T17:19:27.871Z,20.50
2022-10-05T17:22:59.193Z,20.40
2022-10-05T17:25:45.536Z,20.20
2022-10-05T17:28:24.613Z,20.10
2022-10-05T17:31:17.683Z,19.90
2022-10-05T17:33:59.866Z,19.80
2022-10-05T17:36:43.000Z,19.80
2022-10-05T17:39:44.000Z,19.70
2022-10-05T17:42:26.499Z,19.60
2022-10-05T17:45:20.916Z,19.40
2022-10-05T17:48:25.117Z,19.30
2022-10-05T17:51:11.349Z,19.20
2022-10-05T17:54:03.157Z,19.10
2022-10-05T17:56:36.631Z,19.00
2022-10-05T17:59:06.694Z,18.90
2022-10-05T18:01:39.810Z,18.80
2022-10-05T18:04:12.933Z,18.70
2022-10-05T18:07:00.041Z,18.60
2022-10-05T18:09:27.828Z,18.50
2022-10-05T18:12:16.622Z,18.40
2022-10-05T18:15:08.439Z,18.30
2022-10-05T18:17:46.495Z,18.30
2022-10-05T18:20:32.687Z,18.20
2022-10-05T18:23:09.815Z,18.10
2022-10-05T18:26:06.458Z,18.00
2022-10-05T18:28:49.225Z,18.00
2022-10-05T18:31:40.132Z,17.90
2022-10-05T18:35:02.067Z,17.80
2022-10-05T18:37:43.807Z,17.70
2022-10-05T18:40:41.201Z,17.60
2022-10-05T18:43:40.985Z,17.60
2022-10-05T18:46:22.374Z,17.50
2022-10-05T18:49:42.531Z,17.40
2022-10-05T18:52:36.485Z,17.30
2022-10-05T18:55:28.285Z,17.30
2022-10-05T18:58:35.915Z,17.20
2022-10-05T19:01:38.307Z,17.10
2022-10-05T19:04:14.181Z,17.10
2022-10-05T19:07:05.104Z,17.00
2022-10-05T19:09:56.248Z,16.90
2022-10-05T19:12:32.717Z,16.80
2022-10-05T19:15:25.244Z,16.80
2022-10-05T19:18:25.940Z,16.70
2022-10-05T19:21:22.846Z,16.70
2022-10-05T19:24:33.881Z,16.60
2022-10-05T19:27:27.576Z,16.50
2022-10-05T19:30:19.514Z,16.50
2022-10-05T19:33:06.366Z,16.40
2022-10-05T19:37:01.079Z,16.30
2022-10-05T19:39:50.816Z,16.20
2022-10-05T19:43:03.761Z,16.20
2022-10-05T19:45:55.042Z,16.10
2022-10-05T19:48:27.955Z,16.10
2022-10-05T19:51:01.077Z,16.00
2022-10-05T19:53:37.972Z,15.90
2022-10-05T19:56:25.294Z,15.90
2022-10-05T19:58:57.671Z,15.90
2022-10-05T20:01:40.816Z,15.80
2022-10-05T20:04:10.635Z,15.80
2022-10-05T20:06:39.696Z,15.70
2022-10-05T20:09:21.867Z,15.60
2022-10-05T20:11:51.725Z,15.60
2022-10-05T20:14:31.554Z,15.60
2022-10-05T20:17:44.441Z,15.50
2022-10-05T20:20:34.536Z,15.50
2022-10-05T20:23:22.687Z,15.40
2022-10-05T20:26:09.457Z,15.40
2022-10-05T20:28:37.001Z,15.30
2022-10-05T20:31:08.178Z,15.30
2022-10-05T20:33:35.318Z,15.20
2022-10-05T20:36:03.828Z,15.20
2022-10-05T20:38:31.813Z,15.10
2022-10-05T20:40:59.150Z,15.00
2022-10-05T20:43:26.241Z,15.00
2022-10-05T20:45:53.902Z,15.00
2022-10-05T20:48:21.066Z,14.90
2022-10-05T20:50:48.320Z,14.90
2022-10-05T20:53:15.470Z,14.80
2022-10-05T20:55:43.159Z,14.80
2022-10-05T20:58:11.218Z,14.70
2022-10-05T21:00:57.236Z,14.70
2022-10-05T21:03:24.519Z,14.70
2022-10-05T21:05:51.880Z,14.60
2022-10-05T21:08:19.077Z,14.60
2022-10-05T21:10:46.177Z,14.60
2022-10-05T21:13:13.233Z,14.50
2022-10-05T21:15:40.498Z,14.50
2022-10-05T21:18:07.568Z,14.40
2022-10-05T21:20:34.782Z,14.40
2022-10-05T21:23:01.975Z,14.40
2022-10-05T21:25:29.339Z,14.30
2022-10-05T21:27:56.421Z,14.30
2022-10-05T21:30:23.610Z,14.20
2022-10-05T21:32:50.665Z,14.20
2022-10-05T21:35:17.992Z,14.20
2022-10-05T21:37:45.052Z,14.20
2022-10-05T21:40:12.256Z,14.10
2022-10-05T21:42:39.328Z,14.10
2022-10-05T21:45:07.511Z,14.10
2022-10-05T21:47:34.832Z,14.00
2022-10-05T21:50:03.905Z,13.90
2022-10-05T21:52:31.300Z,13.90
2022-10-05T21:54:58.905Z,13.90
2022-10-05T21:57:26.036Z,13.80
2022-10-05T21:59:53.298Z,13.80
2022-10-05T22:02:20.524Z,13.80
2022-10-05T22:04:47.691Z,13.70
2022-10-05T22:07:20.187Z,13.70
2022-10-05T22:09:51.494Z,13.60
2022-10-05T22:12:20.090Z,13.60
2022-10-05T22:14:47.976Z,13.50
2022-10-05T22:17:23.798Z,13.40
2022-10-05T22:19:51.629Z,13.40
2022-10-05T22:22:18.709Z,13.30
2022-10-05T22:24:46.039Z,13.30
2022-10-05T22:27:13.771Z,13.30
2022-10-05T22:29:41.900Z,13.20
2022-10-05T22:32:09.266Z,13.20
2022-10-05T22:34:36.495Z,13.20
2022-10-05T22:37:04.853Z,13.10
2022-10-05T22:39:32.479Z,13.10
2022-10-05T22:41:59.658Z,13.10
2022-10-05T22:44:26.822Z,13.10
2022-10-05T22:46:53.820Z,13.00
2022-10-05T22:49:20.975Z,13.00
2022-10-05T22:51:49.340Z,12.90
2022-10-05T22:54:16.823Z,12.90
2022-10-05T22:56:44.593Z,12.90
2022-10-05T22:59:11.921Z,12.80
2022-10-05T23:01:38.961Z,12.80
2022-10-05T23:04:07.986Z,12.80
2022-10-05T23:06:35.189Z,12.80
2022-10-05T23:09:02.310Z,12.80
2022-10-05T23:11:30.214Z,12.70
2022-10-05T23:13:57.676Z,12.70
2022-10-05T23:16:27.860Z,12.60
2022-10-05T23:18:56.117Z,12.60
2022-10-05T23:21:27.285Z,12.50
2022-10-05T23:23:55.021Z,12.50
2022-10-05T23:26:24.874Z,12.50
2022-10-05T23:28:52.346Z,12.50
2022-10-05T23:31:26.067Z,12.40
2022-10-05T23:33:54.208Z,12.40
2022-10-05T23:36:24.931Z,12.30
2022-10-05T23:38:52.588Z,12.30
2022-10-05T23:41:20.480Z,12.30
2022-10-05T23:43:48.200Z,12.20
2022-10-05T23:46:16.191Z,12.20
2022-10-05T23:48:43.910Z,12.20
2022-10-05T23:51:13.336Z,12.20
2022-10-05T23:53:40.641Z,12.20
2022-10-05T23:56:08.324Z,12.10
2022-10-05T23:58:35.482Z,12.10
